sensor_id;sensor_type;location;lat;lon;timestamp;temperature;humidity
13713;DHT22;6928;50.546;7.120;2023-07-31T00:00:06;19.04;73.08
13713;DHT22;6928;50.546;7.120;2023-07-31T00:02:36;19.17;72.92
13713;DHT22;6928;50.546;7.120;2023-07-31T00:05:08;19.11;73.09
13713;DHT22;6928;50.546;7.120;2023-07-31T00:07:35;19.07;73.49
13713;DHT22;6928;50.546;7.120;2023-07-31T00:10:02;19.12;73.40
13713;DHT22;6928;50.546;7.120;2023-07-31T00:12:31;19.11;73.53
13713;DHT22;6928;50.546;7.120;2023-07-31T00:14:58;19.04;73.92
13713;DHT22;6928;50.546;7.120;2023-07-31T00:17:25;19.01;74.12
13713;DHT22;6928;50.546;7.120;2023-07-31T00:19:51;19.06;73.93
13713;DHT22;6928;50.546;7.120;2023-07-31T00:22:18;19.04;74.06
13713;DHT22;6928;50.546;7.120;2023-07-31T00:24:45;19.06;74.07
13713;DHT22;6928;50.546;7.120;2023-07-31T00:27:12;19.07;74.13
13713;DHT22;6928;50.546;7.120;2023-07-31T00:29:40;19.03;74.31
13713;DHT22;6928;50.546;7.120;2023-07-31T00:32:07;19.04;74.21
13713;DHT22;6928;50.546;7.120;2023-07-31T00:34:34;19.03;74.25
13713;DHT22;6928;50.546;7.120;2023-07-31T00:37:01;19.03;74.26
13713;DHT22;6928;50.546;7.120;2023-07-31T00:39:30;18.94;74.60
13713;DHT22;6928;50.546;7.120;2023-07-31T00:41:57;18.96;74.76
13713;DHT22;6928;50.546;7.120;2023-07-31T00:44:23;18.87;75.38
13713;DHT22;6928;50.546;7.120;2023-07-31T00:46:53;18.93;75.16
13713;DHT22;6928;50.546;7.120;2023-07-31T00:49:22;18.90;75.43
13713;DHT22;6928;50.546;7.120;2023-07-31T00:51:50;18.87;75.66
13713;DHT22;6928;50.546;7.120;2023-07-31T00:54:17;18.90;75.50
13713;DHT22;6928;50.546;7.120;2023-07-31T00:56:46;18.96;75.39
13713;DHT22;6928;50.546;7.120;2023-07-31T00:59:14;18.94;75.54
13713;DHT22;6928;50.546;7.120;2023-07-31T01:01:41;18.94;75.48
13713;DHT22;6928;50.546;7.120;2023-07-31T01:04:09;18.94;75.55
13713;DHT22;6928;50.546;7.120;2023-07-31T01:06:44;18.93;75.57
13713;DHT22;6928;50.546;7.120;2023-07-31T01:09:22;18.93;75.51
13713;DHT22;6928;50.546;7.120;2023-07-31T01:11:55;18.96;75.51
13713;DHT22;6928;50.546;7.120;2023-07-31T01:14:23;18.97;75.54
13713;DHT22;6928;50.546;7.120;2023-07-31T01:16:49;18.97;75.51
13713;DHT22;6928;50.546;7.120;2023-07-31T01:19:22;19.00;75.52
13713;DHT22;6928;50.546;7.120;2023-07-31T01:22:22;18.94;75.62
13713;DHT22;6928;50.546;7.120;2023-07-31T01:24:58;18.91;75.79
13713;DHT22;6928;50.546;7.120;2023-07-31T01:27:33;18.90;75.97
13713;DHT22;6928;50.546;7.120;2023-07-31T01:30:08;18.93;75.76
13713;DHT22;6928;50.546;7.120;2023-07-31T01:32:40;18.90;75.73
13713;DHT22;6928;50.546;7.120;2023-07-31T01:35:09;18.93;75.69
13713;DHT22;6928;50.546;7.120;2023-07-31T01:37:36;18.89;75.33
13713;DHT22;6928;50.546;7.120;2023-07-31T01:40:06;18.93;75.26
13713;DHT22;6928;50.546;7.120;2023-07-31T01:42:34;18.96;75.25
13713;DHT22;6928;50.546;7.120;2023-07-31T01:45:02;18.96;75.21
13713;DHT22;6928;50.546;7.120;2023-07-31T01:47:29;18.93;75.14
13713;DHT22;6928;50.546;7.120;2023-07-31T01:49:56;18.90;75.07
13713;DHT22;6928;50.546;7.120;2023-07-31T01:52:23;18.96;74.94
13713;DHT22;6928;50.546;7.120;2023-07-31T01:54:49;18.94;74.80
13713;DHT22;6928;50.546;7.120;2023-07-31T01:57:19;18.98;74.44
13713;DHT22;6928;50.546;7.120;2023-07-31T01:59:47;18.97;74.64
13713;DHT22;6928;50.546;7.120;2023-07-31T02:02:14;18.93;74.57
13713;DHT22;6928;50.546;7.120;2023-07-31T02:04:41;18.98;74.40
13713;DHT22;6928;50.546;7.120;2023-07-31T02:07:08;18.96;74.61
13713;DHT22;6928;50.546;7.120;2023-07-31T02:09:35;18.98;74.31
13713;DHT22;6928;50.546;7.120;2023-07-31T02:12:05;18.90;74.59
13713;DHT22;6928;50.546;7.120;2023-07-31T02:14:33;18.97;74.32
13713;DHT22;6928;50.546;7.120;2023-07-31T02:17:02;18.96;74.46
13713;DHT22;6928;50.546;7.120;2023-07-31T02:19:28;18.91;74.59
13713;DHT22;6928;50.546;7.120;2023-07-31T02:21:55;18.93;74.61
13713;DHT22;6928;50.546;7.120;2023-07-31T02:24:22;18.91;74.92
13713;DHT22;6928;50.546;7.120;2023-07-31T02:26:50;18.89;74.83
13713;DHT22;6928;50.546;7.120;2023-07-31T02:29:17;18.83;74.59
13713;DHT22;6928;50.546;7.120;2023-07-31T02:31:44;18.91;74.42
13713;DHT22;6928;50.546;7.120;2023-07-31T02:34:12;18.97;74.25
13713;DHT22;6928;50.546;7.120;2023-07-31T02:36:39;19.00;74.03
13713;DHT22;6928;50.546;7.120;2023-07-31T02:39:05;18.87;74.32
13713;DHT22;6928;50.546;7.120;2023-07-31T02:41:32;18.83;74.42
13713;DHT22;6928;50.546;7.120;2023-07-31T02:43:59;18.90;74.25
13713;DHT22;6928;50.546;7.120;2023-07-31T02:46:26;18.87;74.17
13713;DHT22;6928;50.546;7.120;2023-07-31T02:48:52;18.87;73.92
13713;DHT22;6928;50.546;7.120;2023-07-31T02:51:20;18.90;73.68
13713;DHT22;6928;50.546;7.120;2023-07-31T02:53:47;18.93;73.75
13713;DHT22;6928;50.546;7.120;2023-07-31T02:56:15;18.97;73.58
13713;DHT22;6928;50.546;7.120;2023-07-31T02:58:41;18.94;73.56
13713;DHT22;6928;50.546;7.120;2023-07-31T03:01:08;18.87;73.85
13713;DHT22;6928;50.546;7.120;2023-07-31T03:03:35;18.87;73.86
13713;DHT22;6928;50.546;7.120;2023-07-31T03:06:02;18.91;73.67
13713;DHT22;6928;50.546;7.120;2023-07-31T03:08:30;18.91;73.76
13713;DHT22;6928;50.546;7.120;2023-07-31T03:10:57;18.90;74.00
13713;DHT22;6928;50.546;7.120;2023-07-31T03:13:23;18.94;73.62
13713;DHT22;6928;50.546;7.120;2023-07-31T03:15:51;18.97;73.62
13713;DHT22;6928;50.546;7.120;2023-07-31T03:18:18;18.89;73.97
13713;DHT22;6928;50.546;7.120;2023-07-31T03:20:44;18.97;73.76
13713;DHT22;6928;50.546;7.120;2023-07-31T03:23:11;18.94;73.71
13713;DHT22;6928;50.546;7.120;2023-07-31T03:25:41;18.89;73.90
13713;DHT22;6928;50.546;7.120;2023-07-31T03:28:24;18.93;73.96
13713;DHT22;6928;50.546;7.120;2023-07-31T03:30:53;19.00;73.68
13713;DHT22;6928;50.546;7.120;2023-07-31T03:33:19;18.97;73.81
13713;DHT22;6928;50.546;7.120;2023-07-31T03:35:46;18.89;74.03
13713;DHT22;6928;50.546;7.120;2023-07-31T03:38:13;18.86;74.12
13713;DHT22;6928;50.546;7.120;2023-07-31T03:40:41;18.90;74.32
13713;DHT22;6928;50.546;7.120;2023-07-31T03:43:08;18.86;74.37
13713;DHT22;6928;50.546;7.120;2023-07-31T03:45:35;18.90;74.22
13713;DHT22;6928;50.546;7.120;2023-07-31T03:48:03;18.87;74.47
13713;DHT22;6928;50.546;7.120;2023-07-31T03:50:30;18.80;74.79
13713;DHT22;6928;50.546;7.120;2023-07-31T03:52:57;18.89;74.61
13713;DHT22;6928;50.546;7.120;2023-07-31T03:55:24;18.73;74.93
13713;DHT22;6928;50.546;7.120;2023-07-31T03:57:52;18.81;74.70
13713;DHT22;6928;50.546;7.120;2023-07-31T04:00:19;18.86;74.56
13713;DHT22;6928;50.546;7.120;2023-07-31T04:02:47;18.84;74.59
13713;DHT22;6928;50.546;7.120;2023-07-31T04:05:14;18.87;74.43
13713;DHT22;6928;50.546;7.120;2023-07-31T04:07:41;18.83;74.92
13713;DHT22;6928;50.546;7.120;2023-07-31T04:10:08;18.83;74.79
13713;DHT22;6928;50.546;7.120;2023-07-31T04:12:35;18.83;74.85
13713;DHT22;6928;50.546;7.120;2023-07-31T04:15:05;18.84;75.18
13713;DHT22;6928;50.546;7.120;2023-07-31T04:17:32;18.84;75.22
13713;DHT22;6928;50.546;7.120;2023-07-31T04:19:58;18.84;75.61
13713;DHT22;6928;50.546;7.120;2023-07-31T04:22:25;18.81;75.87
13713;DHT22;6928;50.546;7.120;2023-07-31T04:24:55;18.80;76.22
13713;DHT22;6928;50.546;7.120;2023-07-31T04:27:22;18.76;76.37
13713;DHT22;6928;50.546;7.120;2023-07-31T04:29:49;18.89;76.23
13713;DHT22;6928;50.546;7.120;2023-07-31T04:32:17;18.87;76.30
13713;DHT22;6928;50.546;7.120;2023-07-31T04:34:45;18.81;76.57
13713;DHT22;6928;50.546;7.120;2023-07-31T04:37:12;18.79;76.60
13713;DHT22;6928;50.546;7.120;2023-07-31T04:39:39;18.70;77.10
13713;DHT22;6928;50.546;7.120;2023-07-31T04:42:06;18.83;76.87
13713;DHT22;6928;50.546;7.120;2023-07-31T04:44:33;18.80;76.91
13713;DHT22;6928;50.546;7.120;2023-07-31T04:46:59;18.79;76.98
13713;DHT22;6928;50.546;7.120;2023-07-31T04:49:28;18.77;77.12
13713;DHT22;6928;50.546;7.120;2023-07-31T04:51:55;18.72;77.46
13713;DHT22;6928;50.546;7.120;2023-07-31T04:54:22;18.89;76.87
13713;DHT22;6928;50.546;7.120;2023-07-31T04:56:49;18.83;77.39
13713;DHT22;6928;50.546;7.120;2023-07-31T04:59:16;18.79;77.52
13713;DHT22;6928;50.546;7.120;2023-07-31T05:01:42;18.75;77.37
13713;DHT22;6928;50.546;7.120;2023-07-31T05:04:12;18.80;77.46
13713;DHT22;6928;50.546;7.120;2023-07-31T05:06:40;18.89;77.36
13713;DHT22;6928;50.546;7.120;2023-07-31T05:09:07;18.89;77.32
13713;DHT22;6928;50.546;7.120;2023-07-31T05:11:35;18.90;77.29
13713;DHT22;6928;50.546;7.120;2023-07-31T05:14:02;18.83;77.79
13713;DHT22;6928;50.546;7.120;2023-07-31T05:16:29;18.81;77.77
13713;DHT22;6928;50.546;7.120;2023-07-31T05:18:56;18.79;78.11
13713;DHT22;6928;50.546;7.120;2023-07-31T05:21:23;18.79;77.69
13713;DHT22;6928;50.546;7.120;2023-07-31T05:23:51;18.83;77.56
13713;DHT22;6928;50.546;7.120;2023-07-31T05:26:17;18.83;77.52
13713;DHT22;6928;50.546;7.120;2023-07-31T05:28:44;18.80;77.99
13713;DHT22;6928;50.546;7.120;2023-07-31T05:31:11;18.80;77.76
13713;DHT22;6928;50.546;7.120;2023-07-31T05:33:38;18.86;77.73
13713;DHT22;6928;50.546;7.120;2023-07-31T05:36:05;18.87;77.29
13713;DHT22;6928;50.546;7.120;2023-07-31T05:38:31;18.96;76.97
13713;DHT22;6928;50.546;7.120;2023-07-31T05:41:00;19.00;77.10
13713;DHT22;6928;50.546;7.120;2023-07-31T05:43:27;18.96;77.45
13713;DHT22;6928;50.546;7.120;2023-07-31T05:45:54;18.93;77.16
13713;DHT22;6928;50.546;7.120;2023-07-31T05:48:21;19.03;77.07
13713;DHT22;6928;50.546;7.120;2023-07-31T05:50:47;19.04;76.98
13713;DHT22;6928;50.546;7.120;2023-07-31T05:53:14;19.04;76.61
13713;DHT22;6928;50.546;7.120;2023-07-31T05:55:42;19.03;76.74
13713;DHT22;6928;50.546;7.120;2023-07-31T05:58:10;18.97;77.05
13713;DHT22;6928;50.546;7.120;2023-07-31T06:00:37;18.97;76.96
13713;DHT22;6928;50.546;7.120;2023-07-31T06:03:04;19.06;76.82
13713;DHT22;6928;50.546;7.120;2023-07-31T06:05:30;19.06;76.80
13713;DHT22;6928;50.546;7.120;2023-07-31T06:07:57;19.06;77.00
13713;DHT22;6928;50.546;7.120;2023-07-31T06:10:24;19.03;76.94
13713;DHT22;6928;50.546;7.120;2023-07-31T06:12:51;19.00;76.93
13713;DHT22;6928;50.546;7.120;2023-07-31T06:15:19;18.96;77.30
13713;DHT22;6928;50.546;7.120;2023-07-31T06:17:46;18.96;76.93
13713;DHT22;6928;50.546;7.120;2023-07-31T06:20:13;18.93;77.49
13713;DHT22;6928;50.546;7.120;2023-07-31T06:22:40;19.03;78.19
13713;DHT22;6928;50.546;7.120;2023-07-31T06:25:07;18.87;78.04
13713;DHT22;6928;50.546;7.120;2023-07-31T06:27:34;18.84;79.02
13713;DHT22;6928;50.546;7.120;2023-07-31T06:30:01;18.90;78.84
13713;DHT22;6928;50.546;7.120;2023-07-31T06:32:30;18.77;79.16
13713;DHT22;6928;50.546;7.120;2023-07-31T06:34:57;18.77;78.98
13713;DHT22;6928;50.546;7.120;2023-07-31T06:37:23;18.70;78.68
13713;DHT22;6928;50.546;7.120;2023-07-31T06:39:50;18.80;78.22
13713;DHT22;6928;50.546;7.120;2023-07-31T06:42:17;18.84;77.87
13713;DHT22;6928;50.546;7.120;2023-07-31T06:44:44;18.90;77.99
13713;DHT22;6928;50.546;7.120;2023-07-31T06:47:11;18.91;77.69
13713;DHT22;6928;50.546;7.120;2023-07-31T06:49:39;18.91;78.06
13713;DHT22;6928;50.546;7.120;2023-07-31T06:52:06;18.94;78.71
13713;DHT22;6928;50.546;7.120;2023-07-31T06:54:34;18.91;77.25
13713;DHT22;6928;50.546;7.120;2023-07-31T06:57:00;18.96;77.24
13713;DHT22;6928;50.546;7.120;2023-07-31T06:59:27;19.00;76.94
13713;DHT22;6928;50.546;7.120;2023-07-31T07:01:54;19.08;76.47
13713;DHT22;6928;50.546;7.120;2023-07-31T07:04:21;19.03;76.98
13713;DHT22;6928;50.546;7.120;2023-07-31T07:06:49;19.12;76.44
13713;DHT22;6928;50.546;7.120;2023-07-31T07:09:16;19.07;76.74
13713;DHT22;6928;50.546;7.120;2023-07-31T07:11:43;19.14;75.86
13713;DHT22;6928;50.546;7.120;2023-07-31T07:14:10;19.17;75.85
13713;DHT22;6928;50.546;7.120;2023-07-31T07:16:37;19.24;75.96
13713;DHT22;6928;50.546;7.120;2023-07-31T07:19:06;19.27;75.08
13713;DHT22;6928;50.546;7.120;2023-07-31T07:21:33;19.28;74.74
13713;DHT22;6928;50.546;7.120;2023-07-31T07:24:01;19.34;74.51
13713;DHT22;6928;50.546;7.120;2023-07-31T07:26:28;19.42;74.63
13713;DHT22;6928;50.546;7.120;2023-07-31T07:28:55;19.41;74.16
13713;DHT22;6928;50.546;7.120;2023-07-31T07:31:23;19.45;74.07
13713;DHT22;6928;50.546;7.120;2023-07-31T07:33:49;19.54;73.90
13713;DHT22;6928;50.546;7.120;2023-07-31T07:36:16;19.51;74.15
13713;DHT22;6928;50.546;7.120;2023-07-31T07:38:43;19.45;73.59
13713;DHT22;6928;50.546;7.120;2023-07-31T07:41:11;19.45;74.90
13713;DHT22;6928;50.546;7.120;2023-07-31T07:43:38;19.35;76.72
13713;DHT22;6928;50.546;7.120;2023-07-31T07:46:05;19.31;77.57
13713;DHT22;6928;50.546;7.120;2023-07-31T07:48:32;19.18;78.07
13713;DHT22;6928;50.546;7.120;2023-07-31T07:50:58;19.14;78.52
13713;DHT22;6928;50.546;7.120;2023-07-31T07:53:25;19.11;78.64
13713;DHT22;6928;50.546;7.120;2023-07-31T07:55:52;19.20;78.60
13713;DHT22;6928;50.546;7.120;2023-07-31T07:58:20;19.15;78.02
13713;DHT22;6928;50.546;7.120;2023-07-31T08:00:51;19.24;76.98
13713;DHT22;6928;50.546;7.120;2023-07-31T08:03:18;19.20;76.76
13713;DHT22;6928;50.546;7.120;2023-07-31T08:05:45;19.18;76.87
13713;DHT22;6928;50.546;7.120;2023-07-31T08:08:14;19.14;76.49
13713;DHT22;6928;50.546;7.120;2023-07-31T08:10:42;19.20;76.63
13713;DHT22;6928;50.546;7.120;2023-07-31T08:13:09;19.21;77.54
13713;DHT22;6928;50.546;7.120;2023-07-31T08:15:38;19.14;76.62
13713;DHT22;6928;50.546;7.120;2023-07-31T08:18:07;19.17;75.95
13713;DHT22;6928;50.546;7.120;2023-07-31T08:20:34;19.21;75.96
13713;DHT22;6928;50.546;7.120;2023-07-31T08:23:01;19.08;77.21
13713;DHT22;6928;50.546;7.120;2023-07-31T08:25:27;19.00;76.59
13713;DHT22;6928;50.546;7.120;2023-07-31T08:27:54;19.01;78.83
13713;DHT22;6928;50.546;7.120;2023-07-31T08:30:21;18.96;80.23
13713;DHT22;6928;50.546;7.120;2023-07-31T08:32:49;18.91;78.52
13713;DHT22;6928;50.546;7.120;2023-07-31T08:35:17;19.00;77.29
13713;DHT22;6928;50.546;7.120;2023-07-31T08:37:44;19.03;76.57
13713;DHT22;6928;50.546;7.120;2023-07-31T08:40:11;19.14;77.13
13713;DHT22;6928;50.546;7.120;2023-07-31T08:42:44;19.08;75.76
13713;DHT22;6928;50.546;7.120;2023-07-31T08:45:14;19.18;75.81
13713;DHT22;6928;50.546;7.120;2023-07-31T08:47:44;19.21;75.43
13713;DHT22;6928;50.546;7.120;2023-07-31T08:50:15;19.27;75.90
13713;DHT22;6928;50.546;7.120;2023-07-31T08:52:42;19.37;75.39
13713;DHT22;6928;50.546;7.120;2023-07-31T08:55:09;19.39;74.09
13713;DHT22;6928;50.546;7.120;2023-07-31T08:57:38;19.44;74.76
13713;DHT22;6928;50.546;7.120;2023-07-31T09:00:09;19.51;73.68
13713;DHT22;6928;50.546;7.120;2023-07-31T09:02:45;19.51;73.37
13713;DHT22;6928;50.546;7.120;2023-07-31T09:05:14;19.58;74.13
13713;DHT22;6928;50.546;7.120;2023-07-31T09:07:47;19.63;75.14
13713;DHT22;6928;50.546;7.120;2023-07-31T09:10:14;19.68;73.58
13713;DHT22;6928;50.546;7.120;2023-07-31T09:12:41;19.76;72.26
13713;DHT22;6928;50.546;7.120;2023-07-31T09:15:09;19.79;71.87
13713;DHT22;6928;50.546;7.120;2023-07-31T09:17:40;19.85;71.33
13713;DHT22;6928;50.546;7.120;2023-07-31T09:20:16;19.86;72.24
13713;DHT22;6928;50.546;7.120;2023-07-31T09:22:44;19.87;71.43
13713;DHT22;6928;50.546;7.120;2023-07-31T09:25:16;19.96;71.24
13713;DHT22;6928;50.546;7.120;2023-07-31T09:27:50;20.00;70.62
13713;DHT22;6928;50.546;7.120;2023-07-31T09:30:18;20.10;70.42
13713;DHT22;6928;50.546;7.120;2023-07-31T09:32:46;20.16;70.06
13713;DHT22;6928;50.546;7.120;2023-07-31T09:35:19;20.18;69.67
13713;DHT22;6928;50.546;7.120;2023-07-31T09:37:51;20.26;69.29
13713;DHT22;6928;50.546;7.120;2023-07-31T09:40:29;20.26;68.62
13713;DHT22;6928;50.546;7.120;2023-07-31T09:42:58;20.30;69.08
13713;DHT22;6928;50.546;7.120;2023-07-31T09:45:26;20.36;69.55
13713;DHT22;6928;50.546;7.120;2023-07-31T09:47:53;20.36;68.60
13713;DHT22;6928;50.546;7.120;2023-07-31T09:50:24;20.45;68.57
13713;DHT22;6928;50.546;7.120;2023-07-31T09:52:51;20.51;68.24
13713;DHT22;6928;50.546;7.120;2023-07-31T09:55:19;20.55;68.18
13713;DHT22;6928;50.546;7.120;2023-07-31T09:57:48;20.64;68.79
13713;DHT22;6928;50.546;7.120;2023-07-31T10:00:17;20.74;68.65
13713;DHT22;6928;50.546;7.120;2023-07-31T10:02:46;20.84;68.29
13713;DHT22;6928;50.546;7.120;2023-07-31T10:05:14;20.88;68.54
13713;DHT22;6928;50.546;7.120;2023-07-31T10:07:50;20.95;68.01
13713;DHT22;6928;50.546;7.120;2023-07-31T10:10:20;21.16;67.24
13713;DHT22;6928;50.546;7.120;2023-07-31T10:12:48;21.24;66.95
13713;DHT22;6928;50.546;7.120;2023-07-31T10:15:16;21.43;66.85
13713;DHT22;6928;50.546;7.120;2023-07-31T10:17:44;21.15;65.82
13713;DHT22;6928;50.546;7.120;2023-07-31T10:20:11;21.17;65.73
13713;DHT22;6928;50.546;7.120;2023-07-31T10:22:39;21.51;65.52
13713;DHT22;6928;50.546;7.120;2023-07-31T10:25:09;21.75;64.77
13713;DHT22;6928;50.546;7.120;2023-07-31T10:27:39;21.74;65.05
13713;DHT22;6928;50.546;7.120;2023-07-31T10:30:10;21.95;64.38
13713;DHT22;6928;50.546;7.120;2023-07-31T10:32:38;21.92;64.28
13713;DHT22;6928;50.546;7.120;2023-07-31T10:35:08;21.90;64.23
13713;DHT22;6928;50.546;7.120;2023-07-31T10:37:37;21.84;64.56
13713;DHT22;6928;50.546;7.120;2023-07-31T10:40:09;21.90;64.13
13713;DHT22;6928;50.546;7.120;2023-07-31T10:42:38;22.15;63.75
13713;DHT22;6928;50.546;7.120;2023-07-31T10:45:11;22.35;63.40
13713;DHT22;6928;50.546;7.120;2023-07-31T10:47:38;22.36;63.72
13713;DHT22;6928;50.546;7.120;2023-07-31T10:50:18;22.28;64.18
13713;DHT22;6928;50.546;7.120;2023-07-31T10:52:49;22.26;64.06
13713;DHT22;6928;50.546;7.120;2023-07-31T10:55:31;22.09;64.15
13713;DHT22;6928;50.546;7.120;2023-07-31T10:58:06;22.01;64.49
13713;DHT22;6928;50.546;7.120;2023-07-31T11:00:33;22.09;64.58
13713;DHT22;6928;50.546;7.120;2023-07-31T11:03:04;21.95;65.25
13713;DHT22;6928;50.546;7.120;2023-07-31T11:06:01;22.22;64.89
13713;DHT22;6928;50.546;7.120;2023-07-31T11:08:31;22.11;65.27
13713;DHT22;6928;50.546;7.120;2023-07-31T11:11:11;21.74;65.10
13713;DHT22;6928;50.546;7.120;2023-07-31T11:13:45;21.91;65.10
13713;DHT22;6928;50.546;7.120;2023-07-31T11:16:15;22.19;64.86
13713;DHT22;6928;50.546;7.120;2023-07-31T11:18:44;22.22;64.35
13713;DHT22;6928;50.546;7.120;2023-07-31T11:21:14;22.22;64.34
13713;DHT22;6928;50.546;7.120;2023-07-31T11:23:48;22.50;64.82
13713;DHT22;6928;50.546;7.120;2023-07-31T11:26:20;22.26;64.86
13713;DHT22;6928;50.546;7.120;2023-07-31T11:28:48;22.15;64.44
13713;DHT22;6928;50.546;7.120;2023-07-31T11:31:15;22.30;64.50
13713;DHT22;6928;50.546;7.120;2023-07-31T11:33:42;22.25;64.31
13713;DHT22;6928;50.546;7.120;2023-07-31T11:36:17;22.69;64.17
13713;DHT22;6928;50.546;7.120;2023-07-31T11:38:44;22.77;64.27
13713;DHT22;6928;50.546;7.120;2023-07-31T11:41:15;22.22;64.59
13713;DHT22;6928;50.546;7.120;2023-07-31T11:43:42;22.42;65.11
13713;DHT22;6928;50.546;7.120;2023-07-31T11:46:09;22.29;65.18
13713;DHT22;6928;50.546;7.120;2023-07-31T11:48:37;22.57;64.92
13713;DHT22;6928;50.546;7.120;2023-07-31T11:51:06;22.97;64.77
13713;DHT22;6928;50.546;7.120;2023-07-31T11:53:38;23.37;65.16
13713;DHT22;6928;50.546;7.120;2023-07-31T11:56:06;22.49;65.30
13713;DHT22;6928;50.546;7.120;2023-07-31T11:58:36;22.23;65.72
13713;DHT22;6928;50.546;7.120;2023-07-31T12:01:04;22.25;66.49
13713;DHT22;6928;50.546;7.120;2023-07-31T12:03:31;22.52;65.18
13713;DHT22;6928;50.546;7.120;2023-07-31T12:05:59;22.57;65.25
13713;DHT22;6928;50.546;7.120;2023-07-31T12:08:26;22.98;64.45
13713;DHT22;6928;50.546;7.120;2023-07-31T12:11:01;23.01;64.52
13713;DHT22;6928;50.546;7.120;2023-07-31T12:13:44;22.95;64.41
13713;DHT22;6928;50.546;7.120;2023-07-31T12:16:30;22.76;65.19
13713;DHT22;6928;50.546;7.120;2023-07-31T12:19:07;22.95;64.55
13713;DHT22;6928;50.546;7.120;2023-07-31T12:21:36;22.87;64.73
13713;DHT22;6928;50.546;7.120;2023-07-31T12:24:06;22.39;65.26
13713;DHT22;6928;50.546;7.120;2023-07-31T12:26:40;22.44;65.11
13713;DHT22;6928;50.546;7.120;2023-07-31T12:29:13;22.77;65.03
13713;DHT22;6928;50.546;7.120;2023-07-31T12:31:41;22.80;64.88
13713;DHT22;6928;50.546;7.120;2023-07-31T12:34:16;22.88;65.14
13713;DHT22;6928;50.546;7.120;2023-07-31T12:36:44;22.76;64.91
13713;DHT22;6928;50.546;7.120;2023-07-31T12:39:12;22.64;64.71
13713;DHT22;6928;50.546;7.120;2023-07-31T12:41:39;22.73;65.31
13713;DHT22;6928;50.546;7.120;2023-07-31T12:44:06;22.69;64.81
13713;DHT22;6928;50.546;7.120;2023-07-31T12:46:34;22.62;65.32
13713;DHT22;6928;50.546;7.120;2023-07-31T12:49:08;22.57;65.92
13713;DHT22;6928;50.546;7.120;2023-07-31T12:51:39;22.39;65.71
13713;DHT22;6928;50.546;7.120;2023-07-31T12:54:06;22.26;65.82
13713;DHT22;6928;50.546;7.120;2023-07-31T12:56:33;22.37;65.45
13713;DHT22;6928;50.546;7.120;2023-07-31T12:59:00;22.44;65.79
13713;DHT22;6928;50.546;7.120;2023-07-31T13:01:26;22.53;65.96
13713;DHT22;6928;50.546;7.120;2023-07-31T13:03:54;22.12;66.40
13713;DHT22;6928;50.546;7.120;2023-07-31T13:06:21;22.16;67.05
13713;DHT22;6928;50.546;7.120;2023-07-31T13:08:48;21.97;67.26
13713;DHT22;6928;50.546;7.120;2023-07-31T13:11:15;21.94;67.79
13713;DHT22;6928;50.546;7.120;2023-07-31T13:13:42;21.82;68.19
13713;DHT22;6928;50.546;7.120;2023-07-31T13:16:09;21.91;67.99
13713;DHT22;6928;50.546;7.120;2023-07-31T13:18:35;21.44;68.47
13713;DHT22;6928;50.546;7.120;2023-07-31T13:21:04;21.34;69.05
13713;DHT22;6928;50.546;7.120;2023-07-31T13:23:32;21.24;69.20
13713;DHT22;6928;50.546;7.120;2023-07-31T13:26:00;21.46;68.85
13713;DHT22;6928;50.546;7.120;2023-07-31T13:28:27;21.57;69.04
13713;DHT22;6928;50.546;7.120;2023-07-31T13:30:54;21.42;69.19
13713;DHT22;6928;50.546;7.120;2023-07-31T13:33:21;21.19;69.54
13713;DHT22;6928;50.546;7.120;2023-07-31T13:35:49;21.33;69.45
13713;DHT22;6928;50.546;7.120;2023-07-31T13:38:18;21.33;69.38
13713;DHT22;6928;50.546;7.120;2023-07-31T13:40:47;21.32;69.85
13713;DHT22;6928;50.546;7.120;2023-07-31T13:43:14;21.51;69.67
13713;DHT22;6928;50.546;7.120;2023-07-31T13:45:42;21.40;70.52
13713;DHT22;6928;50.546;7.120;2023-07-31T13:48:09;21.47;70.10
13713;DHT22;6928;50.546;7.120;2023-07-31T13:50:36;21.42;70.13
13713;DHT22;6928;50.546;7.120;2023-07-31T13:53:03;21.39;70.09
13713;DHT22;6928;50.546;7.120;2023-07-31T13:55:31;21.29;70.31
13713;DHT22;6928;50.546;7.120;2023-07-31T13:57:58;21.49;70.41
13713;DHT22;6928;50.546;7.120;2023-07-31T14:00:25;21.05;70.91
13713;DHT22;6928;50.546;7.120;2023-07-31T14:02:54;20.85;71.14
13713;DHT22;6928;50.546;7.120;2023-07-31T14:05:21;21.29;70.65
13713;DHT22;6928;50.546;7.120;2023-07-31T14:07:56;21.32;70.30
13713;DHT22;6928;50.546;7.120;2023-07-31T14:10:24;21.27;70.52
13713;DHT22;6928;50.546;7.120;2023-07-31T14:12:53;21.67;69.65
13713;DHT22;6928;50.546;7.120;2023-07-31T14:15:20;21.51;69.66
13713;DHT22;6928;50.546;7.120;2023-07-31T14:17:46;21.40;69.93
13713;DHT22;6928;50.546;7.120;2023-07-31T14:20:13;21.55;69.55
13713;DHT22;6928;50.546;7.120;2023-07-31T14:22:40;21.39;69.97
13713;DHT22;6928;50.546;7.120;2023-07-31T14:25:08;21.33;70.17
13713;DHT22;6928;50.546;7.120;2023-07-31T14:27:36;21.32;69.92
13713;DHT22;6928;50.546;7.120;2023-07-31T14:30:06;20.96;70.87
13713;DHT22;6928;50.546;7.120;2023-07-31T14:32:33;21.12;70.31
13713;DHT22;6928;50.546;7.120;2023-07-31T14:35:00;20.98;70.69
13713;DHT22;6928;50.546;7.120;2023-07-31T14:37:37;21.16;70.74
13713;DHT22;6928;50.546;7.120;2023-07-31T14:40:05;21.12;70.77
13713;DHT22;6928;50.546;7.120;2023-07-31T14:42:32;20.92;70.93
13713;DHT22;6928;50.546;7.120;2023-07-31T14:44:59;20.94;71.07
13713;DHT22;6928;50.546;7.120;2023-07-31T14:47:27;21.06;70.61
13713;DHT22;6928;50.546;7.120;2023-07-31T14:49:56;21.23;70.55
13713;DHT22;6928;50.546;7.120;2023-07-31T14:52:23;21.22;70.63
13713;DHT22;6928;50.546;7.120;2023-07-31T14:54:50;21.10;70.61
13713;DHT22;6928;50.546;7.120;2023-07-31T14:57:17;21.16;70.80
13713;DHT22;6928;50.546;7.120;2023-07-31T14:59:44;21.22;70.18
13713;DHT22;6928;50.546;7.120;2023-07-31T15:02:12;21.13;70.63
13713;DHT22;6928;50.546;7.120;2023-07-31T15:04:40;21.15;70.67
13713;DHT22;6928;50.546;7.120;2023-07-31T15:07:07;20.91;71.29
13713;DHT22;6928;50.546;7.120;2023-07-31T15:09:34;20.98;70.97
13713;DHT22;6928;50.546;7.120;2023-07-31T15:12:01;21.05;70.74
13713;DHT22;6928;50.546;7.120;2023-07-31T15:14:28;20.95;70.71
13713;DHT22;6928;50.546;7.120;2023-07-31T15:16:56;20.99;70.92
13713;DHT22;6928;50.546;7.120;2023-07-31T15:19:23;20.95;71.39
13713;DHT22;6928;50.546;7.120;2023-07-31T15:21:51;20.99;70.95
13713;DHT22;6928;50.546;7.120;2023-07-31T15:24:18;20.99;70.83
13713;DHT22;6928;50.546;7.120;2023-07-31T15:26:45;20.92;71.20
13713;DHT22;6928;50.546;7.120;2023-07-31T15:29:12;20.67;72.34
13713;DHT22;6928;50.546;7.120;2023-07-31T15:31:44;20.82;71.67
13713;DHT22;6928;50.546;7.120;2023-07-31T15:34:12;20.92;71.56
13713;DHT22;6928;50.546;7.120;2023-07-31T15:36:39;21.02;71.29
13713;DHT22;6928;50.546;7.120;2023-07-31T15:39:07;20.94;71.23
13713;DHT22;6928;50.546;7.120;2023-07-31T15:41:34;20.84;71.49
13713;DHT22;6928;50.546;7.120;2023-07-31T15:44:01;20.76;71.68
13713;DHT22;6928;50.546;7.120;2023-07-31T15:46:28;20.81;71.67
13713;DHT22;6928;50.546;7.120;2023-07-31T15:48:55;20.59;72.07
13713;DHT22;6928;50.546;7.120;2023-07-31T15:51:22;20.68;72.12